• Join FlightAware (Why Join?)
  • Login
  • US Flag 
07:08AM EDT


 

Airport Tracker/Info


-or-


 

Live Flight TrackerFlight Track Log ✈ CPZ5841 ✈ 18-Jul-2013 ✈ KMSP - KBIS

Flight Track Log - Related Links

Times and Time Zones

All times are in EDT time to prevent confusion due to time zone crossing. See the CPZ5841 flight status page for this flight to view local times or setup timezone preferences in your user account.

Time Position Orientation Groundspeed Altitude Reporting Facility
EDT Latitude Longitude Course Direction KTS MPH feet Rate Location/Type
11:18PM 44.8833 -93.1333 290° West 199 229 2,700  Level Minneapolis TRACON
11:18PM 44.8758 -93.0881 103° East 222 255 3,500 2,280 Climbing Minneapolis Center
11:19PM 44.9339 -93.0678 14° North 251 289 6,300 2,640 Climbing Minneapolis Center
11:20PM 45.0181 -93.6608 291° West  Level FlightAware Approximate
11:20PM 44.9725 -93.1497 304° West 257 296 9,000  Level Minneapolis Center
11:21PM 45.0526 -93.7744 295° West  Level FlightAware Approximate
11:21PM 45.0094 -93.2486 298° West 291 335 11,400  Level Minneapolis Center
11:22PM 45.0875 -93.8876 286° West  Level FlightAware Approximate
11:22PM 45.0256 -93.3769 280° West 339 390 13,300  Level Minneapolis Center
11:23PM 45.1166 -94.0163 290° West  Level FlightAware Approximate
11:23PM 45.0458 -93.5378 280° West 349 402 15,900  Level Minneapolis Center
11:24PM 45.0644 -93.6792 281° West 365 420 18,200 1,980 Climbing Minneapolis Center
11:25PM 45.0814 -93.8225 280° West 371 427 20,400 1,860 Climbing Minneapolis Center
11:26PM 45.1181 -93.9961 287° West 386 444 22,500 1,740 Climbing Minneapolis Center
11:28PM 45.1531 -94.1422 289° West 393 452 24,000 1,440 Climbing Minneapolis Center
11:29PM 45.1889 -94.2931 289° West 402 463 25,500 1,320 Climbing Minneapolis Center
11:30PM 45.2264 -94.4450 289° West 409 471 26,800 1,260 Climbing Minneapolis Center
11:31PM 45.2697 -94.6300 288° West 413 475 28,200 1,020 Climbing Minneapolis Center
11:32PM 45.3031 -94.7656 289° West 416 479 29,000 1,140 Climbing Minneapolis Center
11:33PM 45.3472 -94.9539 289° West 419 482 30,600 1,320 Climbing Minneapolis Center
11:34PM 45.3825 -95.1100 288° West 419 482 31,800 660 Climbing Minneapolis Center
11:35PM 45.4175 -95.2617 288° West 410 472 32,000 60 Climbing Minneapolis Center
11:36PM 45.4519 -95.4144 288° West 408 470 32,000 240 Level Minneapolis Center
11:37PM 45.4878 -95.5706 288° West 414 476 32,600 840 Climbing Minneapolis Center
11:38PM 45.5231 -95.7250 288° West 413 475 33,800 1,140 Climbing Minneapolis Center
11:39PM 45.5592 -95.8750 289° West 405 466 35,000 960 Climbing Minneapolis Center
11:40PM 45.6139 -96.0114 300° West 398 458 36,000 420 Climbing Minneapolis Center
11:41PM 45.6733 -96.2192 292° West 406 467 36,000  Level Minneapolis Center
11:42PM 45.7125 -96.3725 290° West 411 473 36,000  Level Minneapolis Center
11:43PM 45.7531 -96.5197 292° West 403 464 36,000  Level Minneapolis Center
11:44PM 45.7919 -96.6692 291° West 402 463 36,000  Level Minneapolis Center
11:45PM 45.8308 -96.8167 291° West 399 459 36,000  Level Minneapolis Center
11:46PM 45.8703 -96.9633 291° West 396 456 36,000  Level Minneapolis Center
11:47PM 45.9128 -97.1269 291° West 399 459 36,000  Level Minneapolis Center
11:48PM 45.9500 -97.2744 290° West 396 456 36,000  Level Minneapolis Center
11:49PM 45.9878 -97.4222 290° West 395 455 36,000  Level Minneapolis Center
11:50PM 46.0264 -97.5694 291° West 395 455 36,000  Level Minneapolis Center
11:51PM 46.0561 -97.6900 290° West 398 458 36,000  Level Minneapolis Center
11:52PM 46.0997 -97.8669 290° West 392 451 36,000  Level Minneapolis Center
11:53PM 46.1367 -98.0144 290° West 391 450 36,000  Level Minneapolis Center
11:54PM 46.1817 -98.1942 290° West 396 456 36,000  Level Minneapolis Center
11:55PM 46.2181 -98.3422 290° West 395 455 36,000 -840 Level Minneapolis Center
11:57PM 46.2536 -98.4886 289° West 391 450 34,400 -1,680 Descending Minneapolis Center
11:58PM 46.2814 -98.6044 289° West 386 444 32,600 -2,460 Descending Minneapolis Center
11:59PM 46.3325 -98.8158 289° West 393 452 29,400 -2,760 Descending Minneapolis Center
12:00AM 46.3694 -98.9692 289° West 399 459 27,000 -2,340 Descending Minneapolis Center
12:01AM 46.4039 -99.1153 289° West 394 453 24,700 -2,220 Descending Minneapolis Center
12:02AM 46.4364 -99.2556 289° West 380 437 22,600 -1,980 Descending Minneapolis Center
12:03AM 46.4708 -99.4047 289° West 367 422 20,300 -2,220 Descending Minneapolis Center
12:04AM 46.5069 -99.5603 289° West 351 404 17,700 -2,400 Descending Minneapolis Center
12:05AM 46.5369 -99.6903 289° West 344 396 15,500 -2,040 Descending Minneapolis Center
12:06AM 46.5661 -99.8186 288° West 340 391 13,600 -1,920 Descending Minneapolis Center
12:07AM 46.5919 -99.9308 289° West 329 379 11,700 -1,620 Descending Minneapolis Center
12:08AM 46.6167 -100.0425 288° West 308 354 10,400 -1,560 Descending Minneapolis Center
12:09AM 46.6314 -100.1622 280° West 257 296 8,300 -1,920 Descending Minneapolis Center
12:10AM 46.6475 -100.2761 282° West 245 282 6,200 -1,620 Descending Minneapolis Center
12:11AM 46.6608 -100.3739 281° West 243 280 5,100 -840 Descending Minneapolis Center
12:12AM 46.6744 -100.4711 282° West 242 278 4,600 -720 Descending Minneapolis Center
12:13AM 46.6892 -100.5789 281° West 231 266 3,600 -540 Descending Minneapolis Center
12:14AM 46.6989 -100.6461 282° West 170 196 3,400 -420 Descending Minneapolis Center
12:15AM 46.7233 -100.6817 315° West 123 142 2,800 -600 Descending Minneapolis Center
12:16AM 46.7417 -100.7058 318° Northwest 107 123 2,300 -600 Descending Minneapolis Center
12:17AM 46.7697 -100.7417 319° Northwest 114 131 1,600 -300 Descending Minneapolis Center
12:18AM 46.7928 -100.7711 319° Northwest 113 130 1,700 60 Climbing Minneapolis Center
12:20AM 46.7727 -100.7458 126° Southeast  Level Estimated